createdAt,value
2018-12-23T00:00:01.903Z,5.80
2018-12-23T00:02:30.577Z,5.80
2018-12-23T00:04:59.186Z,5.80
2018-12-23T00:07:27.542Z,5.80
2018-12-23T00:09:56.142Z,5.80
2018-12-23T00:12:24.573Z,5.80
2018-12-23T00:14:52.933Z,5.80
2018-12-23T00:17:21.375Z,5.80
2018-12-23T00:19:49.857Z,5.80
2018-12-23T00:22:18.282Z,5.80
2018-12-23T00:24:46.633Z,5.80
2018-12-23T00:27:14.987Z,5.80
2018-12-23T00:29:43.338Z,5.80
2018-12-23T00:32:11.666Z,5.80
2018-12-23T00:34:40.009Z,5.80
2018-12-23T00:37:08.346Z,5.80
2018-12-23T00:39:36.701Z,5.80
2018-12-23T00:42:05.057Z,5.80
2018-12-23T00:44:33.392Z,5.80
2018-12-23T00:47:01.740Z,5.80
2018-12-23T00:49:30.081Z,5.80
2018-12-23T00:51:58.413Z,5.80
2018-12-23T00:54:26.786Z,5.80
2018-12-23T00:56:55.267Z,5.80
2018-12-23T00:59:23.604Z,5.80
2018-12-23T01:01:51.934Z,5.80
2018-12-23T01:04:20.282Z,5.80
2018-12-23T01:06:48.626Z,5.90
2018-12-23T01:09:17.310Z,5.80
2018-12-23T01:11:45.762Z,5.80
2018-12-23T01:14:14.089Z,5.80
2018-12-23T01:16:42.415Z,5.80
2018-12-23T01:19:10.757Z,5.80
2018-12-23T01:21:39.338Z,5.80
2018-12-23T01:24:08.625Z,5.80
2018-12-23T01:26:36.972Z,5.80
2018-12-23T01:29:05.311Z,5.80
2018-12-23T01:31:35.703Z,5.80
2018-12-23T01:34:05.412Z,5.80
2018-12-23T01:36:35.151Z,5.80
2018-12-23T01:39:05.871Z,5.80
2018-12-23T01:41:36.485Z,5.80
2018-12-23T01:44:06.596Z,5.80
2018-12-23T01:46:34.972Z,5.80
2018-12-23T01:49:03.310Z,5.80
2018-12-23T01:51:31.647Z,5.80
2018-12-23T01:53:59.992Z,5.80
2018-12-23T01:56:28.336Z,5.80
2018-12-23T01:58:56.862Z,5.80
2018-12-23T02:01:25.205Z,5.80
2018-12-23T02:03:53.563Z,5.80
2018-12-23T02:06:21.891Z,5.80
2018-12-23T02:08:50.321Z,5.80
2018-12-23T02:11:18.667Z,5.80
2018-12-23T02:13:47.024Z,5.80
2018-12-23T02:16:15.366Z,5.80
2018-12-23T02:18:43.705Z,5.80
2018-12-23T02:21:13.042Z,5.80
2018-12-23T02:23:41.463Z,5.80
2018-12-23T02:26:09.807Z,5.80
2018-12-23T02:28:38.127Z,5.80
2018-12-23T02:31:06.473Z,5.80
2018-12-23T02:33:34.810Z,5.80
2018-12-23T02:36:03.158Z,5.80
2018-12-23T02:38:31.512Z,5.80
2018-12-23T02:40:59.868Z,5.80
2018-12-23T02:43:28.206Z,5.80
2018-12-23T02:45:56.543Z,5.80
2018-12-23T02:48:24.887Z,5.80
2018-12-23T02:50:53.223Z,5.80
2018-12-23T02:53:21.563Z,5.80
2018-12-23T02:55:49.901Z,5.80
2018-12-23T02:58:18.356Z,5.80
2018-12-23T03:00:46.792Z,5.90
2018-12-23T03:03:15.131Z,5.80
2018-12-23T03:05:43.465Z,5.80
2018-12-23T03:08:11.809Z,5.90
2018-12-23T03:10:40.148Z,5.80
2018-12-23T03:13:08.627Z,5.80
2018-12-23T03:15:36.952Z,5.90
2018-12-23T03:18:05.485Z,5.90
2018-12-23T03:20:33.805Z,5.90
2018-12-23T03:23:02.137Z,5.80
2018-12-23T03:25:30.470Z,5.90
2018-12-23T03:27:58.818Z,5.90
2018-12-23T03:30:27.216Z,5.90
2018-12-23T03:32:55.572Z,5.90
2018-12-23T03:35:23.904Z,5.90
2018-12-23T03:37:52.231Z,5.90
2018-12-23T03:40:20.570Z,5.90
2018-12-23T03:42:48.901Z,5.90
2018-12-23T03:45:17.243Z,5.90
2018-12-23T03:47:45.665Z,5.90
2018-12-23T03:50:14.122Z,5.90
2018-12-23T03:52:42.527Z,5.90
2018-12-23T03:55:10.880Z,5.90
2018-12-23T03:57:39.247Z,5.90
2018-12-23T04:00:08.021Z,5.90
2018-12-23T04:02:36.373Z,5.80
2018-12-23T04:05:04.910Z,5.90
2018-12-23T04:07:33.523Z,5.90
2018-12-23T04:10:01.942Z,5.90
2018-12-23T04:12:30.395Z,5.90
2018-12-23T04:14:58.750Z,5.90
2018-12-23T04:17:27.117Z,5.90
2018-12-23T04:19:55.496Z,5.90
2018-12-23T04:22:23.834Z,5.90
2018-12-23T04:24:52.174Z,5.90
2018-12-23T04:27:20.511Z,5.90
2018-12-23T04:29:48.975Z,5.90
2018-12-23T04:32:17.502Z,5.90
2018-12-23T04:34:45.831Z,5.90
2018-12-23T04:37:14.175Z,5.90
2018-12-23T04:39:42.584Z,5.90
2018-12-23T04:42:10.937Z,5.90
2018-12-23T04:44:39.370Z,5.90
2018-12-23T04:47:07.704Z,5.90
2018-12-23T04:49:36.050Z,5.90
2018-12-23T04:52:04.389Z,5.90
2018-12-23T04:54:32.737Z,5.90
2018-12-23T04:57:01.296Z,5.90
2018-12-23T04:59:29.660Z,5.90
2018-12-23T05:01:57.994Z,5.90
2018-12-23T05:04:26.327Z,5.90
2018-12-23T05:06:54.672Z,5.90
2018-12-23T05:09:23.127Z,5.90
2018-12-23T05:11:51.459Z,5.80
2018-12-23T05:14:19.794Z,5.90
2018-12-23T05:16:48.139Z,5.80
2018-12-23T05:19:16.479Z,5.80
2018-12-23T05:21:44.916Z,5.80
2018-12-23T05:24:13.252Z,5.80
2018-12-23T05:26:41.576Z,5.80
2018-12-23T05:29:09.915Z,5.80
2018-12-23T05:31:38.431Z,5.80
2018-12-23T05:34:06.768Z,5.80
2018-12-23T05:36:35.111Z,5.80
2018-12-23T05:39:05.519Z,5.80
2018-12-23T05:41:33.859Z,5.80
2018-12-23T05:44:02.498Z,5.80
2018-12-23T05:46:30.838Z,5.80
2018-12-23T05:48:59.285Z,5.80
2018-12-23T05:51:27.632Z,5.80
2018-12-23T05:53:55.964Z,5.80
2018-12-23T05:56:24.311Z,5.80
2018-12-23T05:58:52.640Z,5.80
2018-12-23T06:01:20.985Z,5.90
2018-12-23T06:03:49.327Z,5.80
2018-12-23T06:06:17.905Z,5.80
2018-12-23T06:08:46.235Z,5.80
2018-12-23T06:11:14.577Z,5.80
2018-12-23T06:13:42.915Z,5.80
2018-12-23T06:16:11.247Z,5.80
2018-12-23T06:18:39.585Z,5.80
2018-12-23T06:21:07.918Z,5.80
2018-12-23T06:23:36.263Z,5.80
2018-12-23T06:26:04.598Z,5.80
2018-12-23T06:28:33.262Z,5.80
2018-12-23T06:31:01.672Z,5.80
2018-12-23T06:33:30.009Z,5.80
2018-12-23T06:35:58.373Z,5.80
2018-12-23T06:38:26.973Z,5.80
2018-12-23T06:40:55.516Z,5.80
2018-12-23T06:43:23.847Z,5.80
2018-12-23T06:45:52.316Z,5.80
2018-12-23T06:48:20.769Z,5.90
2018-12-23T06:50:49.405Z,5.90
2018-12-23T06:53:17.860Z,5.80
2018-12-23T06:55:46.305Z,5.80
2018-12-23T06:58:14.699Z,5.80
2018-12-23T07:00:43.034Z,5.80
2018-12-23T07:03:11.497Z,5.80
2018-12-23T07:05:39.827Z,5.80
2018-12-23T07:08:08.168Z,5.80
2018-12-23T07:10:36.505Z,5.80
2018-12-23T07:13:05.015Z,5.80
2018-12-23T07:15:33.363Z,5.80
2018-12-23T07:18:01.710Z,5.80
2018-12-23T07:20:30.033Z,5.80
2018-12-23T07:22:58.538Z,5.80
2018-12-23T07:25:26.866Z,5.70
2018-12-23T07:27:55.216Z,5.80
2018-12-23T07:30:23.568Z,5.80
2018-12-23T07:32:51.899Z,5.80
2018-12-23T07:35:20.239Z,5.80
2018-12-23T07:37:48.591Z,5.80
2018-12-23T07:40:16.940Z,5.80
2018-12-23T07:42:45.314Z,5.80
2018-12-23T07:45:13.860Z,5.80
2018-12-23T07:47:42.212Z,5.80
2018-12-23T07:50:10.539Z,5.80
2018-12-23T07:52:38.971Z,5.80
2018-12-23T07:55:07.453Z,5.80
2018-12-23T07:57:36.038Z,5.80
2018-12-23T08:00:05.014Z,5.80
2018-12-23T08:02:33.445Z,5.80
2018-12-23T08:05:01.793Z,5.80
2018-12-23T08:07:36.099Z,5.80
2018-12-23T08:10:00.488Z,5.80
2018-12-23T08:12:28.842Z,5.80
2018-12-23T08:14:57.171Z,5.80
2018-12-23T08:17:25.620Z,5.80
2018-12-23T08:19:53.972Z,5.80
2018-12-23T08:22:23.507Z,5.80
2018-12-23T08:24:52.490Z,5.80
2018-12-23T08:27:20.957Z,5.80
2018-12-23T08:29:49.356Z,5.80
2018-12-23T08:32:17.721Z,5.80
2018-12-23T08:34:46.041Z,5.80
2018-12-23T08:37:14.383Z,5.70
2018-12-23T08:39:42.864Z,5.80
2018-12-23T08:42:11.454Z,5.80
2018-12-23T08:44:39.994Z,5.80
2018-12-23T08:47:08.732Z,5.80
2018-12-23T08:49:37.096Z,5.80
2018-12-23T08:52:05.488Z,5.80
2018-12-23T08:54:34.370Z,5.80
2018-12-23T08:57:02.721Z,5.80
2018-12-23T08:59:31.068Z,5.80
2018-12-23T09:01:59.619Z,5.80
2018-12-23T09:04:27.979Z,5.80
2018-12-23T09:06:56.312Z,5.80
2018-12-23T09:09:24.848Z,5.80
2018-12-23T09:11:53.194Z,5.80
2018-12-23T09:14:21.544Z,5.80
2018-12-23T09:16:49.890Z,5.80
2018-12-23T09:19:18.257Z,5.80
2018-12-23T09:21:46.610Z,5.80
2018-12-23T09:24:15.168Z,5.90
2018-12-23T09:26:43.508Z,5.90
2018-12-23T09:29:11.845Z,5.90
2018-12-23T09:31:40.197Z,5.90
2018-12-23T09:34:08.555Z,5.90
2018-12-23T09:36:37.144Z,5.90
2018-12-23T09:39:06.106Z,5.90
2018-12-23T09:41:34.452Z,5.90
2018-12-23T09:44:02.960Z,5.90
2018-12-23T09:46:31.389Z,5.90
2018-12-23T09:48:59.738Z,5.90
2018-12-23T09:51:28.278Z,5.90
2018-12-23T09:53:56.622Z,5.90
2018-12-23T09:56:24.968Z,5.90
2018-12-23T09:58:53.407Z,5.90
2018-12-23T10:01:21.873Z,6.00
2018-12-23T10:03:50.280Z,6.00
2018-12-23T10:06:18.607Z,6.00
2018-12-23T10:08:46.958Z,6.00
2018-12-23T10:11:15.295Z,6.00
2018-12-23T10:13:43.650Z,6.00
2018-12-23T10:16:12.088Z,6.00
2018-12-23T10:18:40.714Z,6.00
2018-12-23T10:21:10.178Z,6.00
2018-12-23T10:23:39.517Z,6.00
2018-12-23T10:26:07.964Z,6.00
2018-12-23T10:28:36.387Z,6.00
2018-12-23T10:31:04.715Z,6.00
2018-12-23T10:33:33.055Z,6.00
2018-12-23T10:36:01.407Z,6.00
2018-12-23T10:38:29.967Z,6.00
2018-12-23T10:40:58.295Z,6.00
2018-12-23T10:43:26.630Z,6.00
2018-12-23T10:45:54.974Z,6.00
2018-12-23T10:48:23.297Z,6.00
2018-12-23T10:50:51.700Z,6.00
2018-12-23T10:53:20.047Z,6.00
2018-12-23T10:55:48.391Z,6.00
2018-12-23T10:58:16.743Z,6.00
2018-12-23T11:00:45.092Z,6.00
2018-12-23T11:03:13.449Z,6.10
2018-12-23T11:05:41.829Z,6.00
2018-12-23T11:08:10.190Z,6.10
2018-12-23T11:10:38.530Z,6.10
2018-12-23T11:13:06.938Z,6.00
2018-12-23T11:15:35.280Z,6.00
2018-12-23T11:18:03.727Z,6.10
2018-12-23T11:20:32.067Z,6.00
2018-12-23T11:23:00.656Z,6.00
2018-12-23T11:25:28.997Z,6.00
2018-12-23T11:27:57.317Z,6.10
2018-12-23T11:30:25.785Z,6.00
2018-12-23T11:32:54.107Z,6.00
2018-12-23T11:35:22.457Z,6.00
2018-12-23T11:37:50.927Z,6.00
2018-12-23T11:40:19.408Z,6.00
2018-12-23T11:42:47.745Z,6.00
2018-12-23T11:45:16.079Z,6.10
2018-12-23T11:47:44.422Z,6.00
2018-12-23T11:50:12.771Z,6.00
2018-12-23T11:52:41.116Z,6.10
2018-12-23T11:55:09.678Z,6.10
2018-12-23T11:57:38.161Z,6.10
2018-12-23T12:00:07.050Z,6.10
2018-12-23T12:02:35.529Z,6.10
2018-12-23T12:05:04.385Z,6.10
2018-12-23T12:07:32.750Z,6.10
2018-12-23T12:10:01.081Z,6.10
2018-12-23T12:12:29.429Z,6.10
2018-12-23T12:14:57.931Z,6.10
2018-12-23T12:17:26.266Z,6.10
2018-12-23T12:19:54.670Z,6.10
2018-12-23T12:22:23.109Z,6.10
2018-12-23T12:24:51.593Z,6.10
2018-12-23T12:27:20.130Z,6.10
2018-12-23T12:29:48.515Z,6.10
2018-12-23T12:32:16.897Z,6.10
2018-12-23T12:34:45.307Z,6.10
2018-12-23T12:37:13.657Z,6.10
2018-12-23T12:39:42.228Z,6.10
2018-12-23T12:42:10.580Z,6.10
2018-12-23T12:44:39.024Z,6.10
2018-12-23T12:47:07.372Z,6.10
2018-12-23T12:49:35.733Z,6.10
2018-12-23T12:52:04.317Z,6.10
2018-12-23T12:54:32.679Z,6.10
2018-12-23T12:57:01.052Z,6.10
2018-12-23T12:59:29.412Z,6.10
2018-12-23T13:01:57.947Z,6.10
2018-12-23T13:04:26.292Z,6.10
2018-12-23T13:06:54.645Z,6.10
2018-12-23T13:09:22.989Z,6.10
2018-12-23T13:11:51.318Z,6.10
2018-12-23T13:14:19.878Z,6.10
2018-12-23T13:16:48.425Z,6.10
2018-12-23T13:19:16.904Z,6.10
2018-12-23T13:21:45.243Z,6.10
2018-12-23T13:24:13.624Z,6.10
2018-12-23T13:26:42.443Z,6.10
2018-12-23T13:29:11.154Z,6.10
2018-12-23T13:31:39.718Z,6.10
2018-12-23T13:34:08.258Z,6.10
2018-12-23T13:36:36.773Z,6.10
2018-12-23T13:39:09.141Z,6.10
2018-12-23T13:41:43.963Z,6.10
2018-12-23T13:44:23.252Z,6.10
2018-12-23T13:50:48.227Z,6.10
2018-12-23T13:53:33.431Z,6.10
2018-12-23T13:56:21.445Z,6.10
2018-12-23T13:58:54.312Z,6.10
2018-12-23T14:01:30.383Z,6.00
2018-12-23T14:04:30.321Z,6.00
2018-12-23T14:07:19.667Z,6.00
2018-12-23T14:10:01.677Z,6.10
2018-12-23T14:12:31.630Z,6.10
2018-12-23T14:15:01.580Z,6.10
2018-12-23T14:17:31.444Z,6.00
2018-12-23T14:20:01.396Z,6.00
2018-12-23T14:22:31.378Z,6.00
2018-12-23T14:25:01.473Z,6.00
2018-12-23T14:27:31.341Z,6.00
2018-12-23T14:30:01.213Z,6.00
2018-12-23T14:32:31.059Z,6.00
2018-12-23T14:35:01.016Z,6.00
2018-12-23T14:37:30.943Z,6.00
2018-12-23T14:40:02.775Z,6.00
2018-12-23T14:42:32.699Z,6.00
2018-12-23T14:45:02.578Z,6.00
2018-12-23T14:47:32.511Z,6.00
2018-12-23T14:50:02.667Z,6.00
2018-12-23T15:08:37.568Z,6.00
2018-12-23T15:11:08.823Z,6.00
2018-12-23T15:13:39.763Z,6.00
2018-12-23T15:16:10.720Z,5.90
2018-12-23T15:18:41.642Z,5.90
2018-12-23T15:21:12.903Z,5.90
2018-12-23T15:23:44.170Z,5.90
2018-12-23T15:26:15.067Z,5.90
2018-12-23T15:28:45.955Z,5.90
2018-12-23T15:31:16.944Z,5.90
2018-12-23T15:33:47.881Z,5.90
2018-12-23T15:36:19.538Z,5.90
2018-12-23T15:38:50.528Z,5.90
2018-12-23T15:41:21.626Z,5.90
2018-12-23T15:43:52.741Z,5.90
2018-12-23T15:46:23.759Z,5.90
2018-12-23T15:48:54.694Z,5.90
2018-12-23T15:51:25.673Z,5.90
2018-12-23T15:53:56.729Z,5.90
2018-12-23T15:56:28.088Z,5.90
2018-12-23T15:58:59.080Z,5.90
2018-12-23T16:01:30.098Z,5.90
2018-12-23T16:04:01.533Z,5.90
2018-12-23T16:06:32.862Z,5.90
2018-12-23T16:09:04.926Z,5.90
2018-12-23T16:11:35.842Z,5.90
2018-12-23T16:14:08.214Z,5.90
2018-12-23T16:16:39.461Z,5.90
2018-12-23T16:19:11.246Z,5.80
2018-12-23T16:21:42.591Z,5.80
2018-12-23T16:24:13.933Z,5.80
2018-12-23T16:26:46.689Z,5.80
2018-12-23T16:29:17.855Z,5.80
2018-12-23T16:31:48.942Z,5.80
2018-12-23T16:34:20.334Z,5.80
2018-12-23T16:36:51.424Z,5.80
2018-12-23T16:39:22.400Z,5.80
2018-12-23T16:41:53.885Z,5.80
2018-12-23T16:44:24.911Z,5.80
2018-12-23T16:46:56.272Z,5.80
2018-12-23T16:49:27.223Z,5.80
2018-12-23T16:51:58.230Z,5.80
2018-12-23T16:54:29.173Z,5.80
2018-12-23T16:57:00.129Z,5.80
2018-12-23T16:59:30.890Z,5.80
2018-12-23T17:02:01.596Z,5.80
2018-12-23T17:04:32.646Z,5.80
2018-12-23T17:07:03.745Z,5.80
2018-12-23T17:09:34.834Z,5.80
2018-12-23T17:12:05.702Z,5.80
2018-12-23T17:14:36.639Z,5.80
2018-12-23T17:17:07.621Z,5.80
2018-12-23T17:19:38.547Z,5.80
2018-12-23T17:22:09.816Z,5.80
2018-12-23T17:24:41.162Z,5.70
2018-12-23T17:27:12.598Z,5.70
2018-12-23T17:29:43.493Z,5.80
2018-12-23T17:32:14.493Z,5.80
2018-12-23T17:34:45.898Z,5.70
2018-12-23T17:37:17.081Z,5.70
2018-12-23T17:39:47.968Z,5.70
2018-12-23T17:42:18.959Z,5.80
2018-12-23T17:44:49.845Z,5.70
2018-12-23T17:47:20.944Z,5.70
2018-12-23T17:49:51.916Z,5.70
2018-12-23T17:52:23.542Z,5.70
2018-12-23T17:54:54.644Z,5.70
2018-12-23T17:57:25.674Z,5.70
2018-12-23T17:59:56.487Z,5.70
2018-12-23T18:02:28.092Z,5.70
2018-12-23T18:04:58.980Z,5.70
2018-12-23T18:07:31.521Z,5.70
2018-12-23T18:10:03.919Z,5.70
2018-12-23T18:12:37.424Z,5.70
2018-12-23T18:15:08.653Z,5.70
2018-12-23T18:17:39.730Z,5.70
2018-12-23T18:20:10.808Z,5.70
2018-12-23T18:22:41.899Z,5.70
2018-12-23T18:25:12.998Z,5.70
2018-12-23T18:27:44.150Z,5.70
2018-12-23T18:30:15.308Z,5.70
2018-12-23T18:32:46.742Z,5.70
2018-12-23T18:35:17.750Z,5.70
2018-12-23T18:37:49.336Z,5.70
2018-12-23T18:40:20.460Z,5.70
2018-12-23T18:42:51.615Z,5.70
2018-12-23T18:45:22.964Z,5.70
2018-12-23T18:47:54.325Z,5.70
2018-12-23T18:50:25.369Z,5.70
2018-12-23T18:52:56.270Z,5.70
2018-12-23T18:55:28.910Z,5.70
2018-12-23T18:58:00.938Z,5.70
2018-12-23T19:00:31.900Z,5.70
2018-12-23T19:03:02.859Z,5.70
2018-12-23T19:05:33.842Z,5.70
2018-12-23T19:08:04.792Z,5.70
2018-12-23T19:10:42.033Z,5.70
2018-12-23T19:13:20.377Z,5.70
2018-12-23T19:16:15.414Z,5.70
2018-12-23T19:19:11.904Z,5.70
2018-12-23T19:22:08.188Z,5.60
2018-12-23T19:24:56.901Z,5.60
2018-12-23T19:27:30.948Z,5.60
2018-12-23T19:30:29.322Z,5.60
2018-12-23T19:33:02.988Z,5.60
2018-12-23T19:35:42.575Z,5.60
2018-12-23T19:38:33.237Z,5.60
2018-12-23T19:41:23.869Z,5.60
2018-12-23T19:44:00.542Z,5.60
2018-12-23T19:46:34.109Z,5.60
2018-12-23T19:49:24.530Z,5.60
2018-12-23T19:52:24.353Z,5.60
2018-12-23T19:55:03.897Z,5.60
2018-12-23T19:57:50.079Z,5.60
2018-12-23T20:00:26.534Z,5.60
2018-12-23T20:03:24.139Z,5.60
2018-12-23T20:06:04.300Z,5.60
2018-12-23T20:08:37.908Z,5.50
2018-12-23T20:11:36.562Z,5.50
2018-12-23T20:14:28.253Z,5.50
2018-12-23T20:17:20.424Z,5.50
2018-12-23T20:20:25.251Z,5.50
2018-12-23T20:23:13.817Z,5.50
2018-12-23T20:26:02.471Z,5.50
2018-12-23T20:28:48.872Z,5.50
2018-12-23T20:31:34.638Z,5.50
2018-12-23T20:34:26.897Z,5.50
2018-12-23T20:37:20.911Z,5.50
2018-12-23T20:39:55.306Z,5.50
2018-12-23T20:42:41.483Z,5.50
2018-12-23T20:45:30.053Z,5.50
2018-12-23T20:48:09.795Z,5.50
2018-12-23T20:50:46.796Z,5.50
2018-12-23T20:53:45.154Z,5.40
2018-12-23T20:56:18.930Z,5.40
2018-12-23T20:59:15.786Z,5.40
2018-12-23T21:01:58.450Z,5.40
2018-12-23T21:04:48.623Z,5.40
2018-12-23T21:07:44.106Z,5.40
2018-12-23T21:10:34.914Z,5.40
2018-12-23T21:13:25.316Z,5.40
2018-12-23T21:16:08.126Z,5.40
2018-12-23T21:18:54.421Z,5.40
2018-12-23T21:21:28.196Z,5.40
2018-12-23T21:24:17.599Z,5.40
2018-12-23T21:27:09.883Z,5.40
2018-12-23T21:29:43.913Z,5.30
2018-12-23T21:32:45.151Z,5.30
2018-12-23T21:35:35.686Z,5.30
2018-12-23T21:38:24.432Z,5.30
2018-12-23T21:41:09.896Z,5.30
2018-12-23T21:44:00.522Z,5.30
2018-12-23T21:46:54.303Z,5.30
2018-12-23T21:49:30.654Z,5.30
2018-12-23T21:52:27.302Z,5.30
2018-12-23T21:55:20.742Z,5.30
2018-12-23T21:58:11.747Z,5.20
2018-12-23T22:01:03.533Z,5.20
2018-12-23T22:04:05.983Z,5.20
2018-12-23T22:06:58.234Z,5.20
2018-12-23T22:09:38.163Z,5.20
2018-12-23T22:12:30.043Z,5.20
2018-12-23T22:15:01.054Z,5.20
2018-12-23T22:17:32.141Z,5.20
2018-12-23T22:20:03.522Z,5.20
2018-12-23T22:22:34.852Z,5.20
2018-12-23T22:25:06.135Z,5.20
2018-12-23T22:27:38.107Z,5.20
2018-12-23T22:30:09.083Z,5.20
2018-12-23T22:32:41.971Z,5.20
2018-12-23T22:35:12.980Z,5.10
2018-12-23T22:37:44.306Z,5.10
2018-12-23T22:40:15.234Z,5.10
2018-12-23T22:42:46.426Z,5.10
2018-12-23T22:45:17.596Z,5.10
2018-12-23T22:47:49.580Z,5.10
2018-12-23T22:50:20.637Z,5.10
2018-12-23T22:52:51.711Z,5.10
2018-12-23T22:55:22.674Z,5.10
2018-12-23T22:57:53.951Z,5.00
2018-12-23T23:00:26.748Z,5.00
2018-12-23T23:02:57.700Z,5.00
2018-12-23T23:05:28.811Z,5.00
2018-12-23T23:08:01.887Z,5.00
2018-12-23T23:10:33.042Z,5.00
2018-12-23T23:13:03.959Z,5.00
2018-12-23T23:15:34.857Z,5.00
2018-12-23T23:18:05.842Z,5.00
2018-12-23T23:20:36.786Z,5.00
2018-12-23T23:23:07.583Z,4.90
2018-12-23T23:25:38.669Z,4.90
2018-12-23T23:28:09.441Z,4.90
2018-12-23T23:30:40.764Z,4.90
2018-12-23T23:33:12.206Z,4.90
2018-12-23T23:35:43.633Z,4.90
2018-12-23T23:38:14.517Z,4.90
2018-12-23T23:40:45.641Z,4.90
2018-12-23T23:43:17.069Z,4.90
2018-12-23T23:45:48.088Z,4.80
2018-12-23T23:48:20.501Z,4.80
2018-12-23T23:50:52.542Z,4.80
2018-12-23T23:53:23.810Z,4.80
2018-12-23T23:55:55.161Z,4.80
2018-12-23T23:58:26.304Z,4.80
